sensor_id;sensor_type;location;lat;lon;timestamp;P1;durP1;ratioP1;P2;durP2;ratioP2
78740;SDS011;68062;48.726;9.370;2024-03-29T00:01:13;7.03;;;4.60;;
78740;SDS011;68062;48.726;9.370;2024-03-29T00:03:40;11.17;;;4.83;;
78740;SDS011;68062;48.726;9.370;2024-03-29T00:06:06;7.47;;;5.43;;
78740;SDS011;68062;48.726;9.370;2024-03-29T00:08:31;6.60;;;4.87;;
78740;SDS011;68062;48.726;9.370;2024-03-29T00:10:57;11.80;;;6.10;;
78740;SDS011;68062;48.726;9.370;2024-03-29T00:13:23;11.53;;;6.00;;
78740;SDS011;68062;48.726;9.370;2024-03-29T00:15:49;8.83;;;5.00;;
78740;SDS011;68062;48.726;9.370;2024-03-29T00:18:15;8.50;;;4.70;;
78740;SDS011;68062;48.726;9.370;2024-03-29T00:20:42;5.13;;;3.67;;
78740;SDS011;68062;48.726;9.370;2024-03-29T00:23:08;5.70;;;3.20;;
78740;SDS011;68062;48.726;9.370;2024-03-29T00:25:34;4.87;;;3.13;;
78740;SDS011;68062;48.726;9.370;2024-03-29T00:28:00;6.33;;;3.67;;
78740;SDS011;68062;48.726;9.370;2024-03-29T00:30:26;4.13;;;2.97;;
78740;SDS011;68062;48.726;9.370;2024-03-29T00:32:52;5.47;;;3.50;;
78740;SDS011;68062;48.726;9.370;2024-03-29T00:35:18;4.37;;;3.80;;
78740;SDS011;68062;48.726;9.370;2024-03-29T00:37:45;4.13;;;3.17;;
78740;SDS011;68062;48.726;9.370;2024-03-29T00:40:11;2.80;;;2.40;;
78740;SDS011;68062;48.726;9.370;2024-03-29T00:42:37;3.67;;;3.00;;
78740;SDS011;68062;48.726;9.370;2024-03-29T00:45:04;3.37;;;2.10;;
78740;SDS011;68062;48.726;9.370;2024-03-29T00:47:30;2.70;;;1.90;;
78740;SDS011;68062;48.726;9.370;2024-03-29T00:49:56;6.63;;;2.20;;
78740;SDS011;68062;48.726;9.370;2024-03-29T00:52:22;2.80;;;2.30;;
78740;SDS011;68062;48.726;9.370;2024-03-29T00:54:50;3.97;;;2.50;;
78740;SDS011;68062;48.726;9.370;2024-03-29T00:57:16;3.63;;;2.57;;
78740;SDS011;68062;48.726;9.370;2024-03-29T00:59:42;4.37;;;2.20;;
78740;SDS011;68062;48.726;9.370;2024-03-29T01:02:08;4.90;;;2.40;;
78740;SDS011;68062;48.726;9.370;2024-03-29T01:04:34;4.73;;;2.70;;
78740;SDS011;68062;48.726;9.370;2024-03-29T01:07:00;3.53;;;2.40;;
78740;SDS011;68062;48.726;9.370;2024-03-29T01:09:26;3.90;;;2.40;;
78740;SDS011;68062;48.726;9.370;2024-03-29T01:11:53;2.73;;;1.93;;
78740;SDS011;68062;48.726;9.370;2024-03-29T01:14:19;4.97;;;2.40;;
78740;SDS011;68062;48.726;9.370;2024-03-29T01:16:45;4.90;;;3.03;;
78740;SDS011;68062;48.726;9.370;2024-03-29T01:19:11;2.40;;;2.20;;
78740;SDS011;68062;48.726;9.370;2024-03-29T01:21:37;6.97;;;2.27;;
78740;SDS011;68062;48.726;9.370;2024-03-29T01:24:03;2.73;;;2.07;;
78740;SDS011;68062;48.726;9.370;2024-03-29T01:26:29;1.90;;;1.80;;
78740;SDS011;68062;48.726;9.370;2024-03-29T01:28:56;2.43;;;2.03;;
78740;SDS011;68062;48.726;9.370;2024-03-29T01:31:22;2.67;;;1.90;;
78740;SDS011;68062;48.726;9.370;2024-03-29T01:33:49;3.20;;;1.50;;
78740;SDS011;68062;48.726;9.370;2024-03-29T01:36:15;5.07;;;2.10;;
78740;SDS011;68062;48.726;9.370;2024-03-29T01:38:41;5.10;;;2.40;;
78740;SDS011;68062;48.726;9.370;2024-03-29T01:41:07;2.70;;;1.83;;
78740;SDS011;68062;48.726;9.370;2024-03-29T01:43:33;2.87;;;2.03;;
78740;SDS011;68062;48.726;9.370;2024-03-29T01:46:01;2.67;;;2.30;;
78740;SDS011;68062;48.726;9.370;2024-03-29T01:48:28;3.03;;;1.90;;
78740;SDS011;68062;48.726;9.370;2024-03-29T01:50:56;1.67;;;1.60;;
78740;SDS011;68062;48.726;9.370;2024-03-29T01:53:24;2.17;;;2.00;;
78740;SDS011;68062;48.726;9.370;2024-03-29T01:55:52;2.77;;;1.63;;
78740;SDS011;68062;48.726;9.370;2024-03-29T01:58:19;3.07;;;1.87;;
78740;SDS011;68062;48.726;9.370;2024-03-29T02:00:49;2.60;;;2.20;;
78740;SDS011;68062;48.726;9.370;2024-03-29T02:03:19;4.70;;;2.40;;
78740;SDS011;68062;48.726;9.370;2024-03-29T02:05:46;3.07;;;2.33;;
78740;SDS011;68062;48.726;9.370;2024-03-29T02:08:14;2.07;;;1.93;;
78740;SDS011;68062;48.726;9.370;2024-03-29T02:10:41;3.80;;;2.10;;
78740;SDS011;68062;48.726;9.370;2024-03-29T02:13:09;2.47;;;2.00;;
78740;SDS011;68062;48.726;9.370;2024-03-29T02:15:36;3.23;;;1.93;;
78740;SDS011;68062;48.726;9.370;2024-03-29T02:18:03;3.70;;;2.47;;
78740;SDS011;68062;48.726;9.370;2024-03-29T02:20:32;3.70;;;2.20;;
78740;SDS011;68062;48.726;9.370;2024-03-29T02:23:00;2.97;;;2.20;;
78740;SDS011;68062;48.726;9.370;2024-03-29T02:25:33;3.50;;;2.00;;
78740;SDS011;68062;48.726;9.370;2024-03-29T02:28:01;1.87;;;1.80;;
78740;SDS011;68062;48.726;9.370;2024-03-29T02:30:29;2.90;;;2.07;;
78740;SDS011;68062;48.726;9.370;2024-03-29T02:32:57;2.00;;;1.60;;
78740;SDS011;68062;48.726;9.370;2024-03-29T02:35:23;2.60;;;1.90;;
78740;SDS011;68062;48.726;9.370;2024-03-29T02:37:50;2.97;;;1.63;;
78740;SDS011;68062;48.726;9.370;2024-03-29T02:40:17;3.43;;;2.00;;
78740;SDS011;68062;48.726;9.370;2024-03-29T02:42:47;2.33;;;1.60;;
78740;SDS011;68062;48.726;9.370;2024-03-29T02:45:14;2.40;;;2.07;;
78740;SDS011;68062;48.726;9.370;2024-03-29T02:47:41;2.67;;;2.33;;
78740;SDS011;68062;48.726;9.370;2024-03-29T02:50:08;4.17;;;1.90;;
78740;SDS011;68062;48.726;9.370;2024-03-29T02:52:36;3.90;;;1.73;;
78740;SDS011;68062;48.726;9.370;2024-03-29T02:55:02;2.60;;;1.90;;
78740;SDS011;68062;48.726;9.370;2024-03-29T02:57:30;2.93;;;1.70;;
78740;SDS011;68062;48.726;9.370;2024-03-29T02:59:57;3.50;;;1.90;;
78740;SDS011;68062;48.726;9.370;2024-03-29T03:02:24;4.23;;;1.73;;
78740;SDS011;68062;48.726;9.370;2024-03-29T03:04:49;2.10;;;1.43;;
78740;SDS011;68062;48.726;9.370;2024-03-29T03:07:16;1.50;;;1.43;;
78740;SDS011;68062;48.726;9.370;2024-03-29T03:10:00;1.80;;;1.50;;
78740;SDS011;68062;48.726;9.370;2024-03-29T03:12:45;1.33;;;1.20;;
78740;SDS011;68062;48.726;9.370;2024-03-29T03:15:13;1.07;;;1.03;;
78740;SDS011;68062;48.726;9.370;2024-03-29T03:17:40;2.10;;;1.60;;
78740;SDS011;68062;48.726;9.370;2024-03-29T03:20:07;2.40;;;1.53;;
78740;SDS011;68062;48.726;9.370;2024-03-29T03:22:34;2.90;;;1.30;;
78740;SDS011;68062;48.726;9.370;2024-03-29T03:25:01;1.30;;;1.00;;
78740;SDS011;68062;48.726;9.370;2024-03-29T03:27:27;1.60;;;1.10;;
78740;SDS011;68062;48.726;9.370;2024-03-29T03:29:53;2.20;;;1.73;;
78740;SDS011;68062;48.726;9.370;2024-03-29T03:32:21;1.90;;;1.47;;
78740;SDS011;68062;48.726;9.370;2024-03-29T03:34:48;4.07;;;1.50;;
78740;SDS011;68062;48.726;9.370;2024-03-29T03:37:13;1.90;;;1.00;;
78740;SDS011;68062;48.726;9.370;2024-03-29T03:39:40;2.90;;;1.73;;
78740;SDS011;68062;48.726;9.370;2024-03-29T03:42:07;2.60;;;2.10;;
78740;SDS011;68062;48.726;9.370;2024-03-29T03:44:33;3.50;;;2.00;;
78740;SDS011;68062;48.726;9.370;2024-03-29T03:47:00;4.00;;;2.10;;
78740;SDS011;68062;48.726;9.370;2024-03-29T03:49:27;3.70;;;1.93;;
78740;SDS011;68062;48.726;9.370;2024-03-29T03:51:54;3.93;;;1.93;;
78740;SDS011;68062;48.726;9.370;2024-03-29T03:54:20;3.00;;;2.50;;
78740;SDS011;68062;48.726;9.370;2024-03-29T03:56:47;1.93;;;1.57;;
78740;SDS011;68062;48.726;9.370;2024-03-29T03:59:14;2.23;;;1.90;;
78740;SDS011;68062;48.726;9.370;2024-03-29T04:01:40;2.13;;;1.70;;
78740;SDS011;68062;48.726;9.370;2024-03-29T04:04:06;1.40;;;1.30;;
78740;SDS011;68062;48.726;9.370;2024-03-29T04:06:34;1.50;;;1.40;;
78740;SDS011;68062;48.726;9.370;2024-03-29T04:09:00;2.50;;;1.70;;
78740;SDS011;68062;48.726;9.370;2024-03-29T04:11:27;2.40;;;1.80;;
78740;SDS011;68062;48.726;9.370;2024-03-29T04:13:54;3.23;;;1.70;;
78740;SDS011;68062;48.726;9.370;2024-03-29T04:16:20;3.13;;;2.10;;
78740;SDS011;68062;48.726;9.370;2024-03-29T04:18:46;1.83;;;1.80;;
78740;SDS011;68062;48.726;9.370;2024-03-29T04:21:13;3.10;;;1.93;;
78740;SDS011;68062;48.726;9.370;2024-03-29T04:23:40;1.80;;;1.70;;
78740;SDS011;68062;48.726;9.370;2024-03-29T04:26:07;2.10;;;1.80;;
78740;SDS011;68062;48.726;9.370;2024-03-29T04:28:33;2.00;;;1.57;;
78740;SDS011;68062;48.726;9.370;2024-03-29T04:31:00;2.90;;;2.00;;
78740;SDS011;68062;48.726;9.370;2024-03-29T04:33:26;2.90;;;1.90;;
78740;SDS011;68062;48.726;9.370;2024-03-29T04:35:54;1.80;;;1.60;;
78740;SDS011;68062;48.726;9.370;2024-03-29T04:38:20;2.00;;;1.70;;
78740;SDS011;68062;48.726;9.370;2024-03-29T04:40:49;1.60;;;1.50;;
78740;SDS011;68062;48.726;9.370;2024-03-29T04:43:18;1.60;;;1.50;;
78740;SDS011;68062;48.726;9.370;2024-03-29T04:45:45;1.90;;;1.80;;
78740;SDS011;68062;48.726;9.370;2024-03-29T04:48:12;1.73;;;1.63;;
78740;SDS011;68062;48.726;9.370;2024-03-29T04:50:39;1.93;;;1.57;;
78740;SDS011;68062;48.726;9.370;2024-03-29T04:53:06;2.50;;;1.77;;
78740;SDS011;68062;48.726;9.370;2024-03-29T04:55:33;2.30;;;1.60;;
78740;SDS011;68062;48.726;9.370;2024-03-29T04:58:02;2.50;;;1.40;;
78740;SDS011;68062;48.726;9.370;2024-03-29T05:00:29;3.73;;;1.80;;
78740;SDS011;68062;48.726;9.370;2024-03-29T05:02:55;2.33;;;1.83;;
78740;SDS011;68062;48.726;9.370;2024-03-29T05:05:22;3.43;;;2.27;;
78740;SDS011;68062;48.726;9.370;2024-03-29T05:07:49;2.30;;;2.07;;
78740;SDS011;68062;48.726;9.370;2024-03-29T05:10:16;4.80;;;2.20;;
78740;SDS011;68062;48.726;9.370;2024-03-29T05:12:44;4.93;;;2.20;;
78740;SDS011;68062;48.726;9.370;2024-03-29T05:15:12;1.70;;;1.60;;
78740;SDS011;68062;48.726;9.370;2024-03-29T05:17:39;1.23;;;1.23;;
78740;SDS011;68062;48.726;9.370;2024-03-29T05:20:07;3.00;;;2.37;;
78740;SDS011;68062;48.726;9.370;2024-03-29T05:22:34;5.80;;;2.10;;
78740;SDS011;68062;48.726;9.370;2024-03-29T05:25:01;1.90;;;1.80;;
78740;SDS011;68062;48.726;9.370;2024-03-29T05:27:29;2.27;;;1.40;;
78740;SDS011;68062;48.726;9.370;2024-03-29T05:29:56;3.00;;;1.40;;
78740;SDS011;68062;48.726;9.370;2024-03-29T05:32:24;2.90;;;1.60;;
78740;SDS011;68062;48.726;9.370;2024-03-29T05:34:51;1.60;;;1.43;;
78740;SDS011;68062;48.726;9.370;2024-03-29T05:37:18;2.60;;;1.47;;
78740;SDS011;68062;48.726;9.370;2024-03-29T05:39:44;2.67;;;1.80;;
78740;SDS011;68062;48.726;9.370;2024-03-29T05:42:12;3.67;;;1.47;;
78740;SDS011;68062;48.726;9.370;2024-03-29T05:44:39;4.53;;;1.77;;
78740;SDS011;68062;48.726;9.370;2024-03-29T05:47:06;2.70;;;1.43;;
78740;SDS011;68062;48.726;9.370;2024-03-29T05:49:34;2.00;;;1.90;;
78740;SDS011;68062;48.726;9.370;2024-03-29T05:52:01;2.40;;;1.90;;
78740;SDS011;68062;48.726;9.370;2024-03-29T05:54:28;2.03;;;1.70;;
78740;SDS011;68062;48.726;9.370;2024-03-29T05:56:54;3.00;;;2.20;;
78740;SDS011;68062;48.726;9.370;2024-03-29T05:59:21;2.50;;;1.73;;
78740;SDS011;68062;48.726;9.370;2024-03-29T06:01:48;2.20;;;1.90;;
78740;SDS011;68062;48.726;9.370;2024-03-29T06:04:15;4.67;;;1.60;;
78740;SDS011;68062;48.726;9.370;2024-03-29T06:06:45;2.00;;;1.80;;
78740;SDS011;68062;48.726;9.370;2024-03-29T06:09:13;1.90;;;1.57;;
78740;SDS011;68062;48.726;9.370;2024-03-29T06:11:41;1.87;;;1.40;;
78740;SDS011;68062;48.726;9.370;2024-03-29T06:14:10;2.50;;;1.60;;
78740;SDS011;68062;48.726;9.370;2024-03-29T06:16:54;2.43;;;1.73;;
78740;SDS011;68062;48.726;9.370;2024-03-29T06:19:38;2.70;;;1.70;;
78740;SDS011;68062;48.726;9.370;2024-03-29T06:22:07;3.43;;;2.00;;
78740;SDS011;68062;48.726;9.370;2024-03-29T06:24:34;1.93;;;1.80;;
78740;SDS011;68062;48.726;9.370;2024-03-29T06:27:01;4.17;;;1.57;;
78740;SDS011;68062;48.726;9.370;2024-03-29T06:29:28;2.30;;;1.70;;
78740;SDS011;68062;48.726;9.370;2024-03-29T06:31:55;3.13;;;1.63;;
78740;SDS011;68062;48.726;9.370;2024-03-29T06:34:22;2.23;;;1.60;;
78740;SDS011;68062;48.726;9.370;2024-03-29T06:36:49;2.67;;;1.33;;
78740;SDS011;68062;48.726;9.370;2024-03-29T06:39:17;1.57;;;1.43;;
78740;SDS011;68062;48.726;9.370;2024-03-29T06:41:45;1.87;;;1.00;;
78740;SDS011;68062;48.726;9.370;2024-03-29T06:44:12;3.60;;;1.47;;
78740;SDS011;68062;48.726;9.370;2024-03-29T06:46:39;1.40;;;1.30;;
78740;SDS011;68062;48.726;9.370;2024-03-29T06:49:05;1.43;;;1.37;;
78740;SDS011;68062;48.726;9.370;2024-03-29T06:51:32;3.63;;;1.63;;
78740;SDS011;68062;48.726;9.370;2024-03-29T06:53:59;4.63;;;1.83;;
78740;SDS011;68062;48.726;9.370;2024-03-29T06:56:27;2.20;;;1.40;;
78740;SDS011;68062;48.726;9.370;2024-03-29T06:58:55;2.50;;;1.50;;
78740;SDS011;68062;48.726;9.370;2024-03-29T07:01:22;3.60;;;2.00;;
78740;SDS011;68062;48.726;9.370;2024-03-29T07:03:49;1.93;;;1.43;;
78740;SDS011;68062;48.726;9.370;2024-03-29T07:06:15;3.67;;;1.60;;
78740;SDS011;68062;48.726;9.370;2024-03-29T07:08:42;2.10;;;1.90;;
78740;SDS011;68062;48.726;9.370;2024-03-29T07:11:09;2.70;;;1.37;;
78740;SDS011;68062;48.726;9.370;2024-03-29T07:13:37;3.07;;;1.60;;
78740;SDS011;68062;48.726;9.370;2024-03-29T07:16:04;1.87;;;1.17;;
78740;SDS011;68062;48.726;9.370;2024-03-29T07:18:32;1.17;;;1.07;;
78740;SDS011;68062;48.726;9.370;2024-03-29T07:20:59;3.53;;;1.83;;
78740;SDS011;68062;48.726;9.370;2024-03-29T07:23:26;5.50;;;2.07;;
78740;SDS011;68062;48.726;9.370;2024-03-29T07:26:00;1.50;;;1.37;;
78740;SDS011;68062;48.726;9.370;2024-03-29T07:28:28;1.30;;;1.20;;
78740;SDS011;68062;48.726;9.370;2024-03-29T07:30:57;2.60;;;1.80;;
78740;SDS011;68062;48.726;9.370;2024-03-29T07:33:24;2.40;;;2.07;;
78740;SDS011;68062;48.726;9.370;2024-03-29T07:35:53;2.03;;;1.43;;
78740;SDS011;68062;48.726;9.370;2024-03-29T07:38:20;1.00;;;0.93;;
78740;SDS011;68062;48.726;9.370;2024-03-29T07:40:47;2.27;;;1.63;;
78740;SDS011;68062;48.726;9.370;2024-03-29T07:43:14;2.50;;;1.70;;
78740;SDS011;68062;48.726;9.370;2024-03-29T07:45:41;2.40;;;1.73;;
78740;SDS011;68062;48.726;9.370;2024-03-29T07:48:11;2.20;;;1.63;;
78740;SDS011;68062;48.726;9.370;2024-03-29T07:50:39;3.50;;;2.20;;
78740;SDS011;68062;48.726;9.370;2024-03-29T07:53:06;4.03;;;2.10;;
78740;SDS011;68062;48.726;9.370;2024-03-29T07:55:34;2.90;;;2.20;;
78740;SDS011;68062;48.726;9.370;2024-03-29T07:58:00;7.07;;;3.10;;
78740;SDS011;68062;48.726;9.370;2024-03-29T08:00:27;3.30;;;1.97;;
78740;SDS011;68062;48.726;9.370;2024-03-29T08:02:59;2.73;;;2.30;;
78740;SDS011;68062;48.726;9.370;2024-03-29T08:05:28;2.33;;;2.00;;
78740;SDS011;68062;48.726;9.370;2024-03-29T08:07:55;3.70;;;1.80;;
78740;SDS011;68062;48.726;9.370;2024-03-29T08:10:21;3.63;;;1.80;;
78740;SDS011;68062;48.726;9.370;2024-03-29T08:12:48;1.73;;;1.50;;
78740;SDS011;68062;48.726;9.370;2024-03-29T08:16:21;2.60;;;2.40;;
78740;SDS011;68062;48.726;9.370;2024-03-29T08:18:48;2.47;;;1.60;;
78740;SDS011;68062;48.726;9.370;2024-03-29T08:21:15;1.80;;;1.63;;
78740;SDS011;68062;48.726;9.370;2024-03-29T08:23:41;4.73;;;2.40;;
78740;SDS011;68062;48.726;9.370;2024-03-29T08:26:11;3.13;;;2.13;;
78740;SDS011;68062;48.726;9.370;2024-03-29T08:28:38;3.28;;;2.20;;
78740;SDS011;68062;48.726;9.370;2024-03-29T08:31:06;5.60;;;2.10;;
78740;SDS011;68062;48.726;9.370;2024-03-29T08:33:35;3.43;;;3.10;;
78740;SDS011;68062;48.726;9.370;2024-03-29T08:36:04;3.10;;;2.90;;
78740;SDS011;68062;48.726;9.370;2024-03-29T08:38:31;3.43;;;3.10;;
78740;SDS011;68062;48.726;9.370;2024-03-29T08:40:57;4.10;;;2.90;;
78740;SDS011;68062;48.726;9.370;2024-03-29T08:43:24;2.80;;;2.20;;
78740;SDS011;68062;48.726;9.370;2024-03-29T08:45:51;3.13;;;2.30;;
78740;SDS011;68062;48.726;9.370;2024-03-29T08:48:19;2.93;;;2.20;;
78740;SDS011;68062;48.726;9.370;2024-03-29T08:50:47;3.70;;;2.97;;
78740;SDS011;68062;48.726;9.370;2024-03-29T08:53:14;8.17;;;6.60;;
78740;SDS011;68062;48.726;9.370;2024-03-29T08:55:40;6.40;;;4.23;;
78740;SDS011;68062;48.726;9.370;2024-03-29T08:58:07;4.80;;;4.00;;
78740;SDS011;68062;48.726;9.370;2024-03-29T09:00:34;5.90;;;3.93;;
78740;SDS011;68062;48.726;9.370;2024-03-29T09:03:00;3.23;;;3.10;;
78740;SDS011;68062;48.726;9.370;2024-03-29T09:05:27;4.13;;;2.73;;
78740;SDS011;68062;48.726;9.370;2024-03-29T09:07:56;5.07;;;4.10;;
78740;SDS011;68062;48.726;9.370;2024-03-29T09:10:23;4.23;;;3.93;;
78740;SDS011;68062;48.726;9.370;2024-03-29T09:12:52;5.93;;;3.03;;
78740;SDS011;68062;48.726;9.370;2024-03-29T09:15:19;3.70;;;2.40;;
78740;SDS011;68062;48.726;9.370;2024-03-29T09:17:45;2.90;;;1.90;;
78740;SDS011;68062;48.726;9.370;2024-03-29T09:20:12;5.40;;;2.00;;
78740;SDS011;68062;48.726;9.370;2024-03-29T09:22:39;2.37;;;2.13;;
78740;SDS011;68062;48.726;9.370;2024-03-29T09:25:07;4.80;;;2.40;;
78740;SDS011;68062;48.726;9.370;2024-03-29T09:27:38;2.63;;;2.43;;
78740;SDS011;68062;48.726;9.370;2024-03-29T09:30:09;2.83;;;2.23;;
78740;SDS011;68062;48.726;9.370;2024-03-29T09:32:37;3.90;;;2.20;;
78740;SDS011;68062;48.726;9.370;2024-03-29T09:35:04;3.23;;;2.43;;
78740;SDS011;68062;48.726;9.370;2024-03-29T09:37:30;4.50;;;2.80;;
78740;SDS011;68062;48.726;9.370;2024-03-29T09:40:01;5.13;;;2.47;;
78740;SDS011;68062;48.726;9.370;2024-03-29T09:42:31;2.73;;;2.53;;
78740;SDS011;68062;48.726;9.370;2024-03-29T09:44:59;3.73;;;2.93;;
78740;SDS011;68062;48.726;9.370;2024-03-29T09:47:28;2.60;;;2.20;;
78740;SDS011;68062;48.726;9.370;2024-03-29T09:49:58;2.30;;;2.10;;
78740;SDS011;68062;48.726;9.370;2024-03-29T09:52:28;4.97;;;2.73;;
78740;SDS011;68062;48.726;9.370;2024-03-29T09:54:55;4.03;;;2.33;;
78740;SDS011;68062;48.726;9.370;2024-03-29T09:57:23;4.90;;;2.90;;
78740;SDS011;68062;48.726;9.370;2024-03-29T09:59:56;3.50;;;2.40;;
78740;SDS011;68062;48.726;9.370;2024-03-29T10:02:25;2.93;;;2.73;;
78740;SDS011;68062;48.726;9.370;2024-03-29T10:04:55;6.10;;;2.47;;
78740;SDS011;68062;48.726;9.370;2024-03-29T10:07:23;7.27;;;2.73;;
78740;SDS011;68062;48.726;9.370;2024-03-29T10:09:50;3.03;;;2.60;;
78740;SDS011;68062;48.726;9.370;2024-03-29T10:12:17;2.17;;;1.60;;
78740;SDS011;68062;48.726;9.370;2024-03-29T10:14:44;3.07;;;2.00;;
78740;SDS011;68062;48.726;9.370;2024-03-29T10:17:16;4.13;;;1.60;;
78740;SDS011;68062;48.726;9.370;2024-03-29T10:19:44;1.63;;;1.53;;
78740;SDS011;68062;48.726;9.370;2024-03-29T10:22:11;3.73;;;1.50;;
78740;SDS011;68062;48.726;9.370;2024-03-29T10:24:38;2.17;;;1.63;;
78740;SDS011;68062;48.726;9.370;2024-03-29T10:27:05;1.20;;;1.00;;
78740;SDS011;68062;48.726;9.370;2024-03-29T10:29:32;2.53;;;1.30;;
78740;SDS011;68062;48.726;9.370;2024-03-29T10:31:59;1.47;;;1.20;;
78740;SDS011;68062;48.726;9.370;2024-03-29T10:34:28;1.30;;;1.23;;
78740;SDS011;68062;48.726;9.370;2024-03-29T10:37:19;1.63;;;1.50;;
78740;SDS011;68062;48.726;9.370;2024-03-29T10:40:12;1.30;;;1.20;;
78740;SDS011;68062;48.726;9.370;2024-03-29T10:42:41;2.20;;;1.20;;
78740;SDS011;68062;48.726;9.370;2024-03-29T10:45:09;1.60;;;1.37;;
78740;SDS011;68062;48.726;9.370;2024-03-29T10:47:36;1.73;;;1.10;;
78740;SDS011;68062;48.726;9.370;2024-03-29T10:50:08;2.40;;;1.50;;
78740;SDS011;68062;48.726;9.370;2024-03-29T10:52:38;1.27;;;1.20;;
78740;SDS011;68062;48.726;9.370;2024-03-29T10:55:07;2.37;;;1.57;;
78740;SDS011;68062;48.726;9.370;2024-03-29T10:57:34;2.00;;;1.87;;
78740;SDS011;68062;48.726;9.370;2024-03-29T11:00:07;2.10;;;1.47;;
78740;SDS011;68062;48.726;9.370;2024-03-29T11:02:48;5.83;;;3.90;;
78740;SDS011;68062;48.726;9.370;2024-03-29T11:05:18;4.50;;;2.53;;
78740;SDS011;68062;48.726;9.370;2024-03-29T11:07:46;1.50;;;1.40;;
78740;SDS011;68062;48.726;9.370;2024-03-29T11:10:15;1.40;;;1.30;;
78740;SDS011;68062;48.726;9.370;2024-03-29T11:15:32;1.50;;;1.43;;
78740;SDS011;68062;48.726;9.370;2024-03-29T11:18:04;1.37;;;1.30;;
78740;SDS011;68062;48.726;9.370;2024-03-29T11:20:33;1.60;;;1.53;;
78740;SDS011;68062;48.726;9.370;2024-03-29T11:23:03;1.70;;;1.30;;
78740;SDS011;68062;48.726;9.370;2024-03-29T11:25:38;2.00;;;1.47;;
78740;SDS011;68062;48.726;9.370;2024-03-29T11:28:06;1.13;;;1.00;;
78740;SDS011;68062;48.726;9.370;2024-03-29T11:30:39;1.17;;;1.07;;
78740;SDS011;68062;48.726;9.370;2024-03-29T11:33:07;1.63;;;0.97;;
78740;SDS011;68062;48.726;9.370;2024-03-29T11:35:39;4.70;;;1.50;;
78740;SDS011;68062;48.726;9.370;2024-03-29T11:38:06;1.90;;;1.40;;
78740;SDS011;68062;48.726;9.370;2024-03-29T11:40:33;2.10;;;1.57;;
78740;SDS011;68062;48.726;9.370;2024-03-29T11:43:00;3.20;;;1.23;;
78740;SDS011;68062;48.726;9.370;2024-03-29T11:45:26;1.87;;;0.97;;
78740;SDS011;68062;48.726;9.370;2024-03-29T11:47:55;2.90;;;1.07;;
78740;SDS011;68062;48.726;9.370;2024-03-29T11:50:28;1.13;;;0.87;;
78740;SDS011;68062;48.726;9.370;2024-03-29T11:52:57;2.43;;;1.10;;
78740;SDS011;68062;48.726;9.370;2024-03-29T11:55:23;0.90;;;0.90;;
78740;SDS011;68062;48.726;9.370;2024-03-29T11:57:52;1.07;;;0.90;;
78740;SDS011;68062;48.726;9.370;2024-03-29T12:00:19;1.20;;;1.10;;
78740;SDS011;68062;48.726;9.370;2024-03-29T12:02:45;0.73;;;0.70;;
78740;SDS011;68062;48.726;9.370;2024-03-29T12:05:13;1.47;;;0.93;;
78740;SDS011;68062;48.726;9.370;2024-03-29T12:07:41;1.37;;;1.10;;
78740;SDS011;68062;48.726;9.370;2024-03-29T12:10:09;0.83;;;0.77;;
78740;SDS011;68062;48.726;9.370;2024-03-29T12:12:36;0.83;;;0.60;;
78740;SDS011;68062;48.726;9.370;2024-03-29T12:15:03;1.43;;;0.73;;
78740;SDS011;68062;48.726;9.370;2024-03-29T12:17:31;0.90;;;0.80;;
78740;SDS011;68062;48.726;9.370;2024-03-29T12:19:58;0.60;;;0.60;;
78740;SDS011;68062;48.726;9.370;2024-03-29T12:22:30;2.00;;;0.80;;
78740;SDS011;68062;48.726;9.370;2024-03-29T12:24:57;1.23;;;1.13;;
78740;SDS011;68062;48.726;9.370;2024-03-29T12:27:25;1.20;;;0.90;;
78740;SDS011;68062;48.726;9.370;2024-03-29T12:29:52;1.60;;;0.70;;
78740;SDS011;68062;48.726;9.370;2024-03-29T12:32:19;1.80;;;1.17;;
78740;SDS011;68062;48.726;9.370;2024-03-29T12:34:46;0.93;;;0.83;;
78740;SDS011;68062;48.726;9.370;2024-03-29T12:37:13;1.07;;;0.90;;
78740;SDS011;68062;48.726;9.370;2024-03-29T12:39:40;1.07;;;1.00;;
78740;SDS011;68062;48.726;9.370;2024-03-29T12:42:07;1.03;;;0.87;;
78740;SDS011;68062;48.726;9.370;2024-03-29T12:44:36;5.10;;;3.33;;
78740;SDS011;68062;48.726;9.370;2024-03-29T12:47:03;1.80;;;1.70;;
78740;SDS011;68062;48.726;9.370;2024-03-29T12:49:30;2.50;;;1.60;;
78740;SDS011;68062;48.726;9.370;2024-03-29T12:51:57;1.30;;;1.20;;
78740;SDS011;68062;48.726;9.370;2024-03-29T12:54:23;2.20;;;1.20;;
78740;SDS011;68062;48.726;9.370;2024-03-29T12:56:52;1.50;;;1.23;;
78740;SDS011;68062;48.726;9.370;2024-03-29T12:59:19;2.20;;;1.30;;
78740;SDS011;68062;48.726;9.370;2024-03-29T13:01:48;1.53;;;0.90;;
78740;SDS011;68062;48.726;9.370;2024-03-29T13:04:15;1.37;;;0.97;;
78740;SDS011;68062;48.726;9.370;2024-03-29T13:06:42;1.10;;;0.80;;
78740;SDS011;68062;48.726;9.370;2024-03-29T13:09:09;1.33;;;1.20;;
78740;SDS011;68062;48.726;9.370;2024-03-29T13:11:35;2.83;;;1.27;;
78740;SDS011;68062;48.726;9.370;2024-03-29T13:14:02;1.70;;;1.47;;
78740;SDS011;68062;48.726;9.370;2024-03-29T13:16:30;1.60;;;1.00;;
78740;SDS011;68062;48.726;9.370;2024-03-29T13:18:58;1.57;;;1.37;;
78740;SDS011;68062;48.726;9.370;2024-03-29T13:21:25;1.50;;;1.00;;
78740;SDS011;68062;48.726;9.370;2024-03-29T13:23:52;1.67;;;1.23;;
78740;SDS011;68062;48.726;9.370;2024-03-29T13:26:19;1.40;;;1.20;;
78740;SDS011;68062;48.726;9.370;2024-03-29T13:28:46;0.80;;;0.80;;
78740;SDS011;68062;48.726;9.370;2024-03-29T13:31:12;1.33;;;1.20;;
78740;SDS011;68062;48.726;9.370;2024-03-29T13:33:39;2.07;;;1.10;;
78740;SDS011;68062;48.726;9.370;2024-03-29T13:36:08;1.57;;;1.23;;
78740;SDS011;68062;48.726;9.370;2024-03-29T13:38:35;1.30;;;1.20;;
78740;SDS011;68062;48.726;9.370;2024-03-29T13:41:08;1.40;;;0.90;;
78740;SDS011;68062;48.726;9.370;2024-03-29T13:43:38;2.00;;;1.00;;
78740;SDS011;68062;48.726;9.370;2024-03-29T13:52:49;2.40;;;1.30;;
78740;SDS011;68062;48.726;9.370;2024-03-29T13:55:16;1.93;;;1.30;;
78740;SDS011;68062;48.726;9.370;2024-03-29T13:57:43;3.50;;;1.50;;
78740;SDS011;68062;48.726;9.370;2024-03-29T14:00:10;1.63;;;1.20;;
78740;SDS011;68062;48.726;9.370;2024-03-29T14:02:39;1.60;;;1.30;;
78740;SDS011;68062;48.726;9.370;2024-03-29T14:05:06;2.20;;;1.40;;
78740;SDS011;68062;48.726;9.370;2024-03-29T14:07:33;1.40;;;1.37;;
78740;SDS011;68062;48.726;9.370;2024-03-29T14:10:01;3.73;;;1.37;;
78740;SDS011;68062;48.726;9.370;2024-03-29T14:12:31;1.27;;;1.20;;
78740;SDS011;68062;48.726;9.370;2024-03-29T14:14:58;1.37;;;1.30;;
78740;SDS011;68062;48.726;9.370;2024-03-29T14:17:26;1.53;;;1.47;;
78740;SDS011;68062;48.726;9.370;2024-03-29T14:19:53;1.23;;;1.13;;
78740;SDS011;68062;48.726;9.370;2024-03-29T14:22:20;1.23;;;1.13;;
78740;SDS011;68062;48.726;9.370;2024-03-29T14:24:49;1.67;;;1.60;;
78740;SDS011;68062;48.726;9.370;2024-03-29T14:27:17;1.53;;;1.30;;
78740;SDS011;68062;48.726;9.370;2024-03-29T14:29:43;1.20;;;1.10;;
78740;SDS011;68062;48.726;9.370;2024-03-29T14:32:11;1.47;;;1.30;;
78740;SDS011;68062;48.726;9.370;2024-03-29T14:34:38;1.20;;;1.17;;
78740;SDS011;68062;48.726;9.370;2024-03-29T14:37:12;1.23;;;0.80;;
78740;SDS011;68062;48.726;9.370;2024-03-29T14:39:41;1.37;;;1.10;;
78740;SDS011;68062;48.726;9.370;2024-03-29T14:42:09;1.93;;;1.27;;
78740;SDS011;68062;48.726;9.370;2024-03-29T14:44:40;1.37;;;1.27;;
78740;SDS011;68062;48.726;9.370;2024-03-29T14:47:07;1.40;;;1.20;;
78740;SDS011;68062;48.726;9.370;2024-03-29T14:49:35;1.77;;;1.30;;
78740;SDS011;68062;48.726;9.370;2024-03-29T14:52:01;1.57;;;0.97;;
78740;SDS011;68062;48.726;9.370;2024-03-29T14:54:29;1.73;;;0.93;;
78740;SDS011;68062;48.726;9.370;2024-03-29T14:56:56;2.70;;;1.50;;
78740;SDS011;68062;48.726;9.370;2024-03-29T14:59:23;1.27;;;1.10;;
78740;SDS011;68062;48.726;9.370;2024-03-29T15:01:51;1.97;;;1.27;;